createdAt,value
2023-12-13T00:00:14.618Z,607.00
2023-12-13T00:01:14.693Z,607.00
2023-12-13T00:02:14.850Z,610.00
2023-12-13T00:03:14.783Z,611.00
2023-12-13T00:04:14.821Z,611.00
2023-12-13T00:05:14.832Z,612.00
2023-12-13T00:06:14.882Z,612.00
2023-12-13T00:07:14.958Z,608.00
2023-12-13T00:08:14.958Z,610.00
2023-12-13T00:09:15.000Z,610.00
2023-12-13T00:10:15.079Z,609.00
2023-12-13T00:11:15.112Z,610.00
2023-12-13T00:12:15.168Z,609.00
2023-12-13T00:13:15.234Z,606.00
2023-12-13T00:14:15.224Z,607.00
2023-12-13T00:15:15.277Z,607.00
2023-12-13T00:16:15.357Z,612.00
2023-12-13T00:17:15.366Z,606.00
2023-12-13T00:18:15.531Z,612.00
2023-12-13T00:19:15.626Z,611.00
2023-12-13T00:20:15.552Z,610.00
2023-12-13T00:21:15.619Z,606.00
2023-12-13T00:22:15.703Z,610.00
2023-12-13T00:23:15.733Z,611.00
2023-12-13T00:24:15.787Z,610.00
2023-12-13T00:25:15.929Z,613.00
2023-12-13T00:26:15.903Z,606.00
2023-12-13T00:27:15.969Z,609.00
2023-12-13T00:28:16.597Z,612.00
2023-12-13T00:29:16.163Z,609.00
2023-12-13T00:30:16.214Z,607.00
2023-12-13T00:31:16.234Z,608.00
2023-12-13T00:32:16.270Z,609.00
2023-12-13T00:33:16.495Z,611.00
2023-12-13T00:34:16.429Z,608.00
2023-12-13T00:35:16.473Z,609.00
2023-12-13T00:36:16.531Z,606.00
2023-12-13T00:37:16.754Z,607.00
2023-12-13T00:38:16.652Z,610.00
2023-12-13T00:39:16.708Z,607.00
2023-12-13T00:40:16.954Z,612.00
2023-12-13T00:41:16.833Z,610.00
2023-12-13T00:42:16.900Z,611.00
2023-12-13T00:43:16.987Z,612.00
2023-12-13T00:44:17.022Z,610.00
2023-12-13T00:45:17.080Z,614.00
2023-12-13T00:46:17.206Z,605.00
2023-12-13T00:47:17.282Z,607.00
2023-12-13T00:48:17.323Z,611.00
2023-12-13T00:49:17.366Z,609.00
2023-12-13T00:50:17.388Z,610.00
2023-12-13T00:51:17.460Z,611.00
2023-12-13T00:52:17.578Z,611.00
2023-12-13T00:53:17.575Z,612.00
2023-12-13T00:54:17.631Z,609.00
2023-12-13T00:55:17.774Z,611.00
2023-12-13T00:56:17.759Z,613.00
2023-12-13T00:57:17.815Z,617.00
2023-12-13T00:58:17.922Z,612.00
2023-12-13T00:59:17.924Z,612.00
2023-12-13T01:00:17.994Z,614.00
2023-12-13T01:01:18.151Z,611.00
2023-12-13T01:02:18.640Z,614.00
2023-12-13T01:03:18.194Z,610.00
2023-12-13T01:04:18.402Z,615.00
2023-12-13T01:05:18.390Z,608.00
2023-12-13T01:06:18.387Z,615.00
2023-12-13T01:07:18.471Z,613.00
2023-12-13T01:08:18.500Z,612.00
2023-12-13T01:09:18.595Z,613.00
2023-12-13T01:10:18.645Z,614.00
2023-12-13T01:11:18.698Z,614.00
2023-12-13T01:12:18.746Z,612.00
2023-12-13T01:13:18.853Z,613.00
2023-12-13T01:14:18.884Z,614.00
2023-12-13T01:15:18.930Z,614.00
2023-12-13T01:16:19.026Z,611.00
2023-12-13T01:17:19.057Z,616.00
2023-12-13T01:18:19.189Z,612.00
2023-12-13T01:19:19.263Z,611.00
2023-12-13T01:20:19.422Z,613.00
2023-12-13T01:21:19.315Z,613.00
2023-12-13T01:22:19.393Z,613.00
2023-12-13T01:23:19.439Z,612.00
2023-12-13T01:24:19.522Z,613.00
2023-12-13T01:25:19.594Z,614.00
2023-12-13T01:26:19.652Z,612.00
2023-12-13T01:27:19.700Z,609.00
2023-12-13T01:28:19.958Z,612.00
2023-12-13T01:29:19.894Z,613.00
2023-12-13T01:30:19.919Z,613.00
2023-12-13T01:31:20.037Z,612.00
2023-12-13T01:32:20.040Z,611.00
2023-12-13T01:33:20.145Z,612.00
2023-12-13T01:34:20.175Z,613.00
2023-12-13T01:35:20.216Z,609.00
2023-12-13T01:36:20.269Z,612.00
2023-12-13T01:37:20.348Z,612.00
2023-12-13T01:38:20.474Z,611.00
2023-12-13T01:39:20.519Z,606.00
2023-12-13T01:40:20.550Z,611.00
2023-12-13T01:41:20.619Z,610.00
2023-12-13T01:42:20.652Z,612.00
2023-12-13T01:43:20.728Z,613.00
2023-12-13T01:44:20.772Z,612.00
2023-12-13T01:45:20.837Z,610.00
2023-12-13T01:46:20.905Z,611.00
2023-12-13T01:47:20.945Z,613.00
2023-12-13T01:48:21.147Z,612.00
2023-12-13T01:49:21.202Z,611.00
2023-12-13T01:50:21.147Z,612.00
2023-12-13T01:51:21.199Z,610.00
2023-12-13T01:52:21.287Z,608.00
2023-12-13T01:53:21.395Z,609.00
2023-12-13T01:54:21.392Z,610.00
2023-12-13T01:55:21.479Z,611.00
2023-12-13T01:56:21.517Z,610.00
2023-12-13T01:57:21.635Z,610.00
2023-12-13T01:58:21.677Z,610.00
2023-12-13T01:59:21.709Z,609.00
2023-12-13T02:00:21.775Z,609.00
2023-12-13T02:01:21.918Z,610.00
2023-12-13T02:02:21.937Z,608.00
2023-12-13T02:03:22.015Z,607.00
2023-12-13T02:04:22.064Z,609.00
2023-12-13T02:05:22.153Z,610.00
2023-12-13T02:06:22.168Z,608.00
2023-12-13T02:07:22.246Z,610.00
2023-12-13T02:08:22.300Z,609.00
2023-12-13T02:09:22.364Z,608.00
2023-12-13T02:10:22.469Z,608.00
2023-12-13T02:11:24.534Z,605.00
2023-12-13T02:12:22.543Z,610.00
2023-12-13T02:13:22.635Z,608.00
2023-12-13T02:14:22.625Z,608.00
2023-12-13T02:15:22.686Z,608.00
2023-12-13T02:16:22.777Z,608.00
2023-12-13T02:17:22.775Z,605.00
2023-12-13T02:18:22.892Z,609.00
2023-12-13T02:19:22.980Z,611.00
2023-12-13T02:20:22.914Z,608.00
2023-12-13T02:21:22.968Z,610.00
2023-12-13T02:22:23.034Z,609.00
2023-12-13T02:23:23.054Z,605.00
2023-12-13T02:24:23.101Z,611.00
2023-12-13T02:25:23.209Z,610.00
2023-12-13T02:26:23.190Z,605.00
2023-12-13T02:27:23.239Z,606.00
2023-12-13T02:28:23.318Z,607.00
2023-12-13T02:29:23.333Z,607.00
2023-12-13T02:30:25.055Z,607.00
2023-12-13T02:31:23.490Z,610.00
2023-12-13T02:32:23.528Z,610.00
2023-12-13T02:33:23.611Z,608.00
2023-12-13T02:34:23.705Z,608.00
2023-12-13T02:35:23.630Z,608.00
2023-12-13T02:36:23.664Z,604.00
2023-12-13T02:37:23.732Z,606.00
2023-12-13T02:38:23.746Z,600.00
2023-12-13T02:39:23.884Z,608.00
2023-12-13T02:40:23.875Z,609.00
2023-12-13T02:41:23.883Z,607.00
2023-12-13T02:42:24.003Z,608.00
2023-12-13T02:43:24.037Z,609.00
2023-12-13T02:44:24.029Z,601.00
2023-12-13T02:45:24.081Z,608.00
2023-12-13T02:46:24.178Z,606.00
2023-12-13T02:47:24.185Z,607.00
2023-12-13T02:48:24.380Z,605.00
2023-12-13T02:49:24.340Z,608.00
2023-12-13T02:50:24.314Z,607.00
2023-12-13T02:51:24.365Z,606.00
2023-12-13T02:52:24.470Z,606.00
2023-12-13T02:53:24.461Z,605.00
2023-12-13T02:54:24.497Z,606.00
2023-12-13T02:55:27.241Z,608.00
2023-12-13T02:56:24.868Z,608.00
2023-12-13T02:57:24.883Z,605.00
2023-12-13T02:58:25.013Z,608.00
2023-12-13T02:59:24.996Z,609.00
2023-12-13T03:00:25.070Z,610.00
2023-12-13T03:01:25.242Z,611.00
2023-12-13T03:02:25.174Z,606.00
2023-12-13T03:03:25.281Z,608.00
2023-12-13T03:04:25.323Z,609.00
2023-12-13T03:05:25.370Z,606.00
2023-12-13T03:06:25.391Z,607.00
2023-12-13T03:07:25.527Z,609.00
2023-12-13T03:08:25.495Z,607.00
2023-12-13T03:09:25.544Z,609.00
2023-12-13T03:10:25.655Z,610.00
2023-12-13T03:11:25.682Z,609.00
2023-12-13T03:12:25.724Z,612.00
2023-12-13T03:13:25.789Z,609.00
2023-12-13T03:14:25.910Z,607.00
2023-12-13T03:15:25.956Z,610.00
2023-12-13T03:16:25.995Z,610.00
2023-12-13T03:17:25.985Z,609.00
2023-12-13T03:18:26.157Z,609.00
2023-12-13T03:19:26.193Z,599.00
2023-12-13T03:20:26.156Z,610.00
2023-12-13T03:21:26.243Z,609.00
2023-12-13T03:22:26.290Z,605.00
2023-12-13T03:23:26.337Z,602.00
2023-12-13T03:24:26.409Z,610.00
2023-12-13T03:25:26.513Z,607.00
2023-12-13T03:26:26.514Z,609.00
2023-12-13T03:27:26.573Z,605.00
2023-12-13T03:28:26.659Z,607.00
2023-12-13T03:29:26.695Z,611.00
2023-12-13T03:30:27.207Z,610.00
2023-12-13T03:31:26.855Z,613.00
2023-12-13T03:32:26.871Z,611.00
2023-12-13T03:33:27.010Z,607.00
2023-12-13T03:34:27.057Z,607.00
2023-12-13T03:35:27.059Z,609.00
2023-12-13T03:36:27.102Z,600.00
2023-12-13T03:37:27.215Z,601.00
2023-12-13T03:38:27.219Z,609.00
2023-12-13T03:39:27.291Z,612.00
2023-12-13T03:40:27.364Z,616.00
2023-12-13T03:41:27.428Z,609.00
2023-12-13T03:42:27.456Z,612.00
2023-12-13T03:43:27.538Z,618.00
2023-12-13T03:44:27.564Z,614.00
2023-12-13T03:45:27.682Z,608.00
2023-12-13T03:46:27.762Z,611.00
2023-12-13T03:47:28.065Z,613.00
2023-12-13T03:48:27.932Z,612.00
2023-12-13T03:49:28.071Z,608.00
2023-12-13T03:50:27.925Z,611.00
2023-12-13T03:51:27.980Z,608.00
2023-12-13T03:52:28.053Z,612.00
2023-12-13T03:53:28.101Z,614.00
2023-12-13T03:54:28.169Z,607.00
2023-12-13T03:55:28.245Z,612.00
2023-12-13T03:56:28.279Z,608.00
2023-12-13T03:57:28.360Z,612.00
2023-12-13T03:58:28.435Z,613.00
2023-12-13T03:59:28.451Z,609.00
2023-12-13T04:00:28.611Z,610.00
2023-12-13T04:01:28.601Z,608.00
2023-12-13T04:02:28.624Z,605.00
2023-12-13T04:03:28.725Z,612.00
2023-12-13T04:04:28.794Z,613.00
2023-12-13T04:05:28.808Z,614.00
2023-12-13T04:06:28.893Z,616.00
2023-12-13T04:07:28.944Z,611.00
2023-12-13T04:08:28.982Z,610.00
2023-12-13T04:09:29.041Z,612.00
2023-12-13T04:10:29.155Z,611.00
2023-12-13T04:11:29.152Z,611.00
2023-12-13T04:12:29.250Z,610.00
2023-12-13T04:13:29.313Z,613.00
2023-12-13T04:14:29.331Z,600.00
2023-12-13T04:15:29.395Z,605.00
2023-12-13T04:16:29.461Z,612.00
2023-12-13T04:17:30.304Z,612.00
2023-12-13T04:18:29.620Z,616.00
2023-12-13T04:19:29.644Z,613.00
2023-12-13T04:20:29.672Z,607.00
2023-12-13T04:21:29.721Z,608.00
2023-12-13T04:22:29.796Z,607.00
2023-12-13T04:23:29.837Z,606.00
2023-12-13T04:24:29.877Z,608.00
2023-12-13T04:25:29.984Z,612.00
2023-12-13T04:26:30.005Z,610.00
2023-12-13T04:27:30.171Z,603.00
2023-12-13T04:28:30.105Z,609.00
2023-12-13T04:29:30.159Z,611.00
2023-12-13T04:30:30.252Z,604.00
2023-12-13T04:31:30.360Z,609.00
2023-12-13T04:32:30.406Z,606.00
2023-12-13T04:33:30.480Z,608.00
2023-12-13T04:34:30.477Z,601.00
2023-12-13T04:35:30.521Z,614.00
2023-12-13T04:36:30.560Z,603.00
2023-12-13T04:37:30.798Z,614.00
2023-12-13T04:38:30.660Z,614.00
2023-12-13T04:39:30.776Z,610.00
2023-12-13T04:40:30.831Z,614.00
2023-12-13T04:41:30.849Z,613.00
2023-12-13T04:42:30.888Z,609.00
2023-12-13T04:43:30.960Z,609.00
2023-12-13T04:44:30.995Z,614.00
2023-12-13T04:45:31.056Z,609.00
2023-12-13T04:46:38.456Z,600.00
2023-12-13T04:47:38.774Z,600.00
2023-12-13T04:48:38.643Z,600.00
2023-12-13T04:49:38.615Z,600.00
2023-12-13T04:50:38.601Z,600.00
2023-12-13T04:51:38.638Z,604.00
2023-12-13T04:52:39.521Z,607.00
2023-12-13T04:53:38.714Z,600.00
2023-12-13T04:54:38.766Z,610.00
2023-12-13T04:55:38.862Z,606.00
2023-12-13T04:56:38.847Z,607.00
2023-12-13T04:57:39.486Z,609.00
2023-12-13T04:58:38.966Z,609.00
2023-12-13T04:59:38.971Z,603.00
2023-12-13T05:00:39.059Z,611.00
2023-12-13T05:01:39.085Z,608.00
2023-12-13T05:02:39.097Z,611.00
2023-12-13T05:03:39.208Z,610.00
2023-12-13T05:04:39.242Z,604.00
2023-12-13T05:05:39.308Z,611.00
2023-12-13T05:06:39.306Z,617.00
2023-12-13T05:07:39.480Z,612.00
2023-12-13T05:08:39.377Z,618.00
2023-12-13T05:09:39.429Z,607.00
2023-12-13T05:10:39.538Z,614.00
2023-12-13T05:11:39.521Z,609.00
2023-12-13T05:12:39.579Z,616.00
2023-12-13T05:13:39.639Z,604.00
2023-12-13T05:14:39.684Z,609.00
2023-12-13T05:15:39.700Z,610.00
2023-12-13T05:16:39.800Z,610.00
2023-12-13T05:17:39.906Z,610.00
2023-12-13T05:18:39.869Z,610.00
2023-12-13T05:19:40.080Z,617.00
2023-12-13T05:20:39.960Z,614.00
2023-12-13T05:21:39.996Z,620.00
2023-12-13T05:22:40.111Z,616.00
2023-12-13T05:23:40.087Z,618.00
2023-12-13T05:24:40.157Z,615.00
2023-12-13T05:25:40.263Z,610.00
2023-12-13T05:26:40.211Z,613.00
2023-12-13T05:27:40.253Z,617.00
2023-12-13T05:28:40.353Z,619.00
2023-12-13T05:29:40.353Z,600.00
2023-12-13T05:30:40.423Z,612.00
2023-12-13T05:31:40.479Z,619.00
2023-12-13T05:32:40.525Z,612.00
2023-12-13T05:33:40.554Z,613.00
2023-12-13T05:34:40.597Z,612.00
2023-12-13T05:35:40.667Z,617.00
2023-12-13T05:36:40.651Z,616.00
2023-12-13T05:37:40.713Z,609.00
2023-12-13T05:38:40.722Z,617.00
2023-12-13T05:39:40.760Z,613.00
2023-12-13T05:40:40.837Z,611.00
2023-12-13T05:41:41.499Z,618.00
2023-12-13T05:42:40.887Z,618.00
2023-12-13T05:43:40.978Z,614.00
2023-12-13T05:44:40.964Z,610.00
2023-12-13T05:45:41.016Z,613.00
2023-12-13T05:46:41.119Z,613.00
2023-12-13T05:47:41.166Z,618.00
2023-12-13T05:48:41.217Z,605.00
2023-12-13T05:49:41.197Z,614.00
2023-12-13T05:50:41.216Z,614.00
2023-12-13T05:51:41.260Z,615.00
2023-12-13T05:52:41.298Z,612.00
2023-12-13T05:53:41.315Z,620.00
2023-12-13T05:54:41.364Z,617.00
2023-12-13T05:55:41.426Z,618.00
2023-12-13T05:56:41.442Z,615.00
2023-12-13T05:57:41.494Z,612.00
2023-12-13T05:58:41.674Z,612.00
2023-12-13T05:59:41.649Z,606.00
2023-12-13T06:00:41.647Z,604.00
2023-12-13T06:01:42.528Z,613.00
2023-12-13T06:02:54.797Z,618.00
2023-12-13T06:03:42.793Z,618.00
2023-12-13T06:04:41.883Z,618.00
2023-12-13T06:05:42.167Z,616.00
2023-12-13T06:06:41.925Z,612.00
2023-12-13T06:07:41.934Z,609.00
2023-12-13T06:08:41.987Z,605.00
2023-12-13T06:09:42.035Z,618.00
2023-12-13T06:10:42.548Z,618.00
2023-12-13T06:11:42.112Z,615.00
2023-12-13T06:12:42.165Z,610.00
2023-12-13T06:13:42.410Z,618.00
2023-12-13T06:14:42.226Z,613.00
2023-12-13T06:15:42.279Z,607.00
2023-12-13T06:16:42.480Z,612.00
2023-12-13T06:17:42.454Z,617.00
2023-12-13T06:18:42.440Z,611.00
2023-12-13T06:19:42.455Z,616.00
2023-12-13T06:20:42.502Z,602.00
2023-12-13T06:21:42.537Z,602.00
2023-12-13T06:22:42.607Z,605.00
2023-12-13T06:23:42.665Z,616.00
2023-12-13T06:24:42.648Z,609.00
2023-12-13T06:25:42.760Z,613.00
2023-12-13T06:26:42.733Z,615.00
2023-12-13T06:27:42.778Z,623.00
2023-12-13T06:28:42.910Z,618.00
2023-12-13T06:29:43.010Z,610.00
2023-12-13T06:30:43.080Z,617.00
2023-12-13T06:31:48.132Z,621.00
2023-12-13T06:32:43.274Z,622.00
2023-12-13T06:33:43.358Z,625.00
2023-12-13T06:34:43.989Z,632.00
2023-12-13T06:35:43.944Z,648.00
2023-12-13T06:36:43.323Z,663.00
2023-12-13T06:37:43.465Z,671.00
2023-12-13T06:38:43.475Z,688.00
2023-12-13T06:39:44.470Z,689.00
2023-12-13T06:40:44.520Z,690.00
2023-12-13T06:41:43.548Z,697.00
2023-12-13T06:42:43.542Z,710.00
2023-12-13T06:43:43.574Z,735.00
2023-12-13T06:44:43.587Z,765.00
2023-12-13T06:45:43.618Z,780.00
2023-12-13T06:46:43.760Z,795.00
2023-12-13T06:47:43.678Z,789.00
2023-12-13T06:48:43.795Z,809.00
2023-12-13T06:49:43.763Z,824.00
2023-12-13T06:50:43.827Z,841.00
2023-12-13T06:51:44.554Z,864.00
2023-12-13T06:52:43.845Z,851.00
2023-12-13T06:53:43.882Z,864.00
2023-12-13T06:54:43.866Z,885.00
2023-12-13T06:55:44.086Z,891.00
2023-12-13T06:56:44.536Z,897.00
2023-12-13T06:57:43.934Z,903.00
2023-12-13T06:58:44.025Z,929.00
2023-12-13T06:59:43.991Z,921.00
2023-12-13T07:00:44.566Z,925.00
2023-12-13T07:01:44.018Z,943.00
2023-12-13T07:02:44.097Z,964.00
2023-12-13T07:03:44.071Z,964.00
2023-12-13T07:04:44.244Z,975.00
2023-12-13T07:05:44.426Z,975.00
2023-12-13T07:06:45.127Z,976.00
2023-12-13T07:07:44.199Z,980.00
2023-12-13T07:08:44.188Z,990.00
2023-12-13T07:09:46.086Z,977.00
2023-12-13T07:10:44.253Z,983.00
2023-12-13T07:11:44.240Z,995.00
2023-12-13T07:12:44.310Z,1016.00
2023-12-13T07:13:44.448Z,1055.00
2023-12-13T07:14:46.035Z,978.00
2023-12-13T07:15:44.321Z,991.00
2023-12-13T07:16:44.414Z,1014.00
2023-12-13T07:17:44.409Z,1045.00
2023-12-13T07:18:44.391Z,1092.00
2023-12-13T07:19:45.446Z,979.00
2023-12-13T07:20:44.445Z,994.00
2023-12-13T07:21:44.426Z,1021.00
2023-12-13T07:22:44.504Z,1062.00
2023-12-13T07:23:44.560Z,1111.00
2023-12-13T07:24:44.507Z,1117.00
2023-12-13T07:25:44.586Z,1116.00
2023-12-13T07:26:46.554Z,1113.00
2023-12-13T07:27:44.568Z,1124.00
2023-12-13T07:28:44.675Z,1122.00
2023-12-13T07:29:44.724Z,1115.00
2023-12-13T07:30:52.466Z,1110.00
2023-12-13T07:31:45.860Z,1111.00
2023-12-13T07:32:44.875Z,1112.00
2023-12-13T07:33:44.890Z,1109.00
2023-12-13T07:34:44.891Z,1113.00
2023-12-13T07:35:44.886Z,1111.00
2023-12-13T07:36:44.932Z,1109.00
2023-12-13T07:37:44.970Z,1107.00
2023-12-13T07:38:44.962Z,1102.00
2023-12-13T07:39:44.991Z,1108.00
2023-12-13T07:40:45.102Z,1105.00
2023-12-13T07:41:45.067Z,1099.00
2023-12-13T07:42:46.970Z,1101.00
2023-12-13T07:43:45.109Z,1085.00
2023-12-13T07:44:45.123Z,1101.00
2023-12-13T07:45:45.158Z,1086.00
2023-12-13T07:46:46.070Z,1086.00
2023-12-13T07:47:53.521Z,1080.00
2023-12-13T07:48:46.400Z,1080.00
2023-12-13T07:49:46.098Z,1083.00
2023-12-13T07:50:45.455Z,1085.00
2023-12-13T07:51:45.333Z,1079.00
2023-12-13T07:52:45.381Z,1091.00
2023-12-13T07:53:46.684Z,1068.00
2023-12-13T07:54:45.432Z,1081.00
2023-12-13T07:55:45.456Z,1079.00
2023-12-13T07:56:45.480Z,1073.00
2023-12-13T07:57:45.499Z,1078.00
2023-12-13T07:58:45.583Z,1064.00
2023-12-13T07:59:45.581Z,1062.00
2023-12-13T08:00:45.636Z,1077.00
2023-12-13T08:01:45.696Z,1070.00
2023-12-13T08:02:47.026Z,1054.00
2023-12-13T08:03:45.744Z,1069.00
2023-12-13T08:04:45.849Z,1055.00
2023-12-13T08:05:45.971Z,1054.00
2023-12-13T08:06:45.988Z,1065.00
2023-12-13T08:07:46.154Z,1054.00
2023-12-13T08:08:46.148Z,1037.00
2023-12-13T08:09:46.498Z,1045.00
2023-12-13T08:10:46.603Z,1049.00
2023-12-13T08:11:46.390Z,1060.00
2023-12-13T08:12:46.503Z,1047.00
2023-12-13T08:13:46.742Z,1033.00
2023-12-13T08:14:46.650Z,1041.00
2023-12-13T08:15:46.744Z,1033.00
2023-12-13T08:16:46.840Z,1045.00
2023-12-13T08:17:47.052Z,1027.00
2023-12-13T08:18:47.117Z,1037.00
2023-12-13T08:19:47.572Z,1021.00
2023-12-13T08:20:48.970Z,1055.00
2023-12-13T08:21:47.282Z,1041.00
2023-12-13T08:22:47.563Z,1016.00
2023-12-13T08:23:47.520Z,1011.00
2023-12-13T08:24:47.552Z,1006.00
2023-12-13T08:25:47.668Z,993.00
2023-12-13T08:26:47.691Z,876.00
2023-12-13T08:27:47.773Z,864.00
2023-12-13T08:28:48.335Z,827.00
2023-12-13T08:29:47.988Z,774.00
2023-12-13T08:30:48.156Z,715.00
2023-12-13T08:31:48.234Z,685.00
2023-12-13T08:32:49.101Z,660.00
2023-12-13T08:33:48.486Z,651.00
2023-12-13T08:34:48.578Z,635.00
2023-12-13T08:35:48.638Z,623.00
2023-12-13T08:36:48.715Z,618.00
2023-12-13T08:37:48.806Z,615.00
2023-12-13T08:38:49.847Z,613.00
2023-12-13T08:39:49.592Z,607.00
2023-12-13T08:40:49.026Z,607.00
2023-12-13T08:41:49.024Z,604.00
2023-12-13T08:42:49.085Z,597.00
2023-12-13T08:43:50.071Z,610.00
2023-12-13T08:44:49.178Z,598.00
2023-12-13T08:45:49.236Z,606.00
2023-12-13T08:46:49.316Z,611.00
2023-12-13T08:47:49.328Z,614.00
2023-12-13T08:48:49.422Z,617.00
2023-12-13T08:49:49.454Z,612.00
2023-12-13T08:50:50.024Z,621.00
2023-12-13T08:51:49.502Z,615.00
2023-12-13T08:52:49.651Z,618.00
2023-12-13T08:53:49.669Z,617.00
2023-12-13T08:54:49.743Z,627.00
2023-12-13T08:55:49.881Z,624.00
2023-12-13T08:56:49.862Z,630.00
2023-12-13T08:57:49.924Z,629.00
2023-12-13T08:58:50.000Z,631.00
2023-12-13T08:59:56.754Z,642.00
2023-12-13T09:00:51.225Z,642.00
2023-12-13T09:01:50.144Z,637.00
2023-12-13T09:02:51.078Z,644.00
2023-12-13T09:03:50.298Z,642.00
2023-12-13T09:04:50.314Z,666.00
2023-12-13T09:05:50.396Z,684.00
2023-12-13T09:06:50.347Z,661.00
2023-12-13T09:07:50.442Z,655.00
2023-12-13T09:08:52.084Z,641.00
2023-12-13T09:09:51.079Z,631.00
2023-12-13T09:10:50.515Z,627.00
2023-12-13T09:11:50.516Z,625.00
2023-12-13T09:12:50.564Z,617.00
2023-12-13T09:13:50.715Z,624.00
2023-12-13T09:14:50.695Z,631.00
2023-12-13T09:15:50.788Z,637.00
2023-12-13T09:16:50.824Z,633.00
2023-12-13T09:17:50.912Z,627.00
2023-12-13T09:18:51.004Z,640.00
2023-12-13T09:19:51.204Z,628.00
2023-12-13T09:20:51.170Z,638.00
2023-12-13T09:21:51.196Z,638.00
2023-12-13T09:22:51.356Z,636.00
2023-12-13T09:23:51.391Z,629.00
2023-12-13T09:24:51.557Z,626.00
2023-12-13T09:25:51.598Z,624.00
2023-12-13T09:26:51.651Z,617.00
2023-12-13T09:27:51.760Z,620.00
2023-12-13T09:28:51.942Z,615.00
2023-12-13T09:29:51.945Z,618.00
2023-12-13T09:30:52.122Z,608.00
2023-12-13T09:31:52.087Z,614.00
2023-12-13T09:32:53.190Z,622.00
2023-12-13T09:33:52.324Z,617.00
2023-12-13T09:34:52.257Z,621.00
2023-12-13T09:35:52.328Z,624.00
2023-12-13T09:36:52.429Z,623.00
2023-12-13T09:37:52.562Z,629.00
2023-12-13T09:38:52.604Z,628.00
2023-12-13T09:39:59.576Z,635.00
2023-12-13T09:40:53.759Z,635.00
2023-12-13T09:41:52.740Z,636.00
2023-12-13T09:42:52.787Z,640.00
2023-12-13T09:43:52.832Z,644.00
2023-12-13T09:44:52.832Z,649.00
2023-12-13T09:45:52.867Z,658.00
2023-12-13T09:46:52.939Z,657.00
2023-12-13T09:47:53.017Z,667.00
2023-12-13T09:48:52.976Z,671.00
2023-12-13T09:49:53.041Z,665.00
2023-12-13T09:50:53.075Z,701.00
2023-12-13T09:51:52.999Z,690.00
2023-12-13T09:52:53.071Z,712.00
2023-12-13T09:53:53.041Z,730.00
2023-12-13T09:54:53.064Z,719.00
2023-12-13T09:55:53.172Z,737.00
2023-12-13T09:56:53.175Z,744.00
2023-12-13T09:57:53.136Z,753.00
2023-12-13T09:58:53.233Z,771.00
2023-12-13T09:59:53.190Z,755.00
2023-12-13T10:00:53.206Z,787.00
2023-12-13T10:01:53.327Z,777.00
2023-12-13T10:02:53.394Z,797.00
2023-12-13T10:03:53.470Z,790.00
2023-12-13T10:04:54.600Z,801.00
2023-12-13T10:05:53.744Z,804.00
2023-12-13T10:06:54.610Z,822.00
2023-12-13T10:07:54.826Z,823.00
2023-12-13T10:08:53.779Z,825.00
2023-12-13T10:09:54.599Z,828.00
2023-12-13T10:10:53.908Z,838.00
2023-12-13T10:11:53.840Z,852.00
2023-12-13T10:12:53.853Z,857.00
2023-12-13T10:13:53.896Z,874.00
2023-12-13T10:14:53.887Z,870.00
2023-12-13T10:15:53.909Z,888.00
2023-12-13T10:17:00.833Z,883.00
2023-12-13T10:17:55.568Z,884.00
2023-12-13T10:18:53.980Z,889.00
2023-12-13T10:19:54.085Z,895.00
2023-12-13T10:20:54.001Z,905.00
2023-12-13T10:21:54.022Z,917.00
2023-12-13T10:22:54.132Z,925.00
2023-12-13T10:23:54.646Z,927.00
2023-12-13T10:24:54.112Z,940.00
2023-12-13T10:25:54.157Z,930.00
2023-12-13T10:26:54.204Z,924.00
2023-12-13T10:27:54.276Z,918.00
2023-12-13T10:28:54.362Z,906.00
2023-12-13T10:29:54.383Z,869.00
2023-12-13T10:30:54.486Z,868.00
2023-12-13T10:31:54.484Z,849.00
2023-12-13T10:32:54.677Z,840.00
2023-12-13T10:33:54.595Z,819.00
2023-12-13T10:34:54.582Z,837.00
2023-12-13T10:35:54.581Z,826.00
2023-12-13T10:36:54.651Z,833.00
2023-12-13T10:37:54.754Z,831.00
2023-12-13T10:38:54.802Z,822.00
2023-12-13T10:39:55.130Z,831.00
2023-12-13T10:40:55.022Z,823.00
2023-12-13T10:41:55.075Z,831.00
2023-12-13T10:42:55.156Z,832.00
2023-12-13T10:43:55.270Z,847.00
2023-12-13T10:44:55.297Z,856.00
2023-12-13T10:45:55.409Z,850.00
2023-12-13T10:46:55.472Z,856.00
2023-12-13T10:47:55.562Z,867.00
2023-12-13T10:48:55.623Z,864.00
2023-12-13T10:49:55.833Z,869.00
2023-12-13T10:50:55.746Z,876.00
2023-12-13T10:51:55.835Z,882.00
2023-12-13T10:52:55.933Z,892.00
2023-12-13T10:53:55.939Z,900.00
2023-12-13T10:54:56.558Z,904.00
2023-12-13T10:55:56.649Z,914.00
2023-12-13T10:56:56.121Z,918.00
2023-12-13T10:57:56.178Z,920.00
2023-12-13T10:58:56.283Z,933.00
2023-12-13T10:59:56.294Z,938.00
2023-12-13T11:00:56.404Z,943.00
2023-12-13T11:01:56.490Z,964.00
2023-12-13T11:02:56.496Z,993.00
2023-12-13T11:03:56.570Z,992.00
2023-12-13T11:04:56.673Z,999.00
2023-12-13T11:05:56.708Z,999.00
2023-12-13T11:06:56.729Z,1009.00
2023-12-13T11:07:56.812Z,1003.00
2023-12-13T11:08:56.838Z,1003.00
2023-12-13T11:09:56.932Z,1005.00
2023-12-13T11:10:57.006Z,998.00
2023-12-13T11:11:57.045Z,1003.00
2023-12-13T11:12:57.641Z,994.00
2023-12-13T11:13:57.202Z,989.00
2023-12-13T11:14:57.255Z,989.00
2023-12-13T11:15:57.335Z,989.00
2023-12-13T11:16:57.457Z,997.00
2023-12-13T11:17:57.525Z,996.00
2023-12-13T11:18:57.785Z,979.00
2023-12-13T11:19:58.579Z,991.00
2023-12-13T11:20:57.779Z,986.00
2023-12-13T11:21:57.893Z,987.00
2023-12-13T11:22:58.045Z,978.00
2023-12-13T11:23:57.990Z,974.00
2023-12-13T11:24:58.058Z,966.00
2023-12-13T11:25:58.237Z,978.00
2023-12-13T11:26:58.189Z,965.00
2023-12-13T11:27:59.134Z,974.00
2023-12-13T11:28:58.338Z,982.00
2023-12-13T11:29:58.325Z,981.00
2023-12-13T11:30:58.473Z,964.00
2023-12-13T11:31:58.457Z,964.00
2023-12-13T11:32:59.583Z,965.00
2023-12-13T11:33:58.480Z,965.00
2023-12-13T11:34:58.560Z,968.00
2023-12-13T11:35:58.490Z,956.00
2023-12-13T11:36:59.062Z,963.00
2023-12-13T11:37:58.566Z,967.00
2023-12-13T11:38:58.555Z,963.00
2023-12-13T11:39:58.582Z,960.00
2023-12-13T11:40:58.668Z,965.00
2023-12-13T11:41:58.649Z,961.00
2023-12-13T11:42:58.671Z,957.00
2023-12-13T11:43:58.769Z,955.00
2023-12-13T11:44:58.772Z,957.00
2023-12-13T11:45:59.564Z,954.00
2023-12-13T11:46:58.916Z,950.00
2023-12-13T11:47:58.843Z,952.00
2023-12-13T11:48:58.831Z,956.00
2023-12-13T11:49:58.852Z,951.00
2023-12-13T11:50:58.880Z,942.00
2023-12-13T11:51:58.920Z,942.00
2023-12-13T11:52:58.972Z,942.00
2023-12-13T11:53:59.648Z,947.00
2023-12-13T11:54:58.978Z,947.00
2023-12-13T11:55:59.057Z,949.00
2023-12-13T11:56:59.034Z,938.00
2023-12-13T11:57:59.679Z,936.00
2023-12-13T11:58:59.221Z,945.00
2023-12-13T11:59:59.093Z,936.00
2023-12-13T12:00:59.197Z,946.00
2023-12-13T12:01:59.172Z,943.00
2023-12-13T12:02:59.173Z,935.00
2023-12-13T12:03:59.307Z,938.00
2023-12-13T12:04:59.340Z,929.00
2023-12-13T12:05:59.380Z,935.00
2023-12-13T12:06:59.364Z,938.00
2023-12-13T12:07:59.416Z,938.00
2023-12-13T12:08:59.485Z,927.00
2023-12-13T12:09:59.530Z,939.00
2023-12-13T12:10:59.693Z,923.00
2023-12-13T12:11:59.656Z,923.00
2023-12-13T12:12:59.715Z,925.00
2023-12-13T12:13:59.901Z,917.00
2023-12-13T12:14:59.904Z,915.00
2023-12-13T12:15:59.909Z,918.00
2023-12-13T12:17:00.079Z,932.00
2023-12-13T12:18:00.200Z,913.00
2023-12-13T12:19:00.244Z,925.00
2023-12-13T12:20:00.273Z,911.00
2023-12-13T12:21:00.348Z,909.00
2023-12-13T12:22:00.353Z,918.00
2023-12-13T12:23:00.410Z,922.00
2023-12-13T12:24:00.508Z,910.00
2023-12-13T12:25:00.579Z,918.00
2023-12-13T12:26:00.711Z,899.00
2023-12-13T12:27:00.729Z,895.00